• Join FlightAware (Why Join?)
  • Login
  • US Flag 
06:56AM EDT


 

Airport Tracker/Info


-or-


 

Live Flight TrackerFlight Track Log ✈ AAY655 ✈ 31-Mar-2014 ✈ KIAG - KSFB

Flight Track Log - Related Links

Times and Time Zones

All times are in EDT time to prevent confusion due to time zone crossing. See the AAY655 flight status page for this flight to view local times or setup timezone preferences in your user account.

Time Position Orientation Groundspeed Altitude Reporting Facility
EDT Latitude Longitude Course Direction KTS MPH feet Rate Location/Type
07:30PM 43.1167 -78.9667 206° Southwest 149 171 1,200  Level Buffalo TRACON
07:30PM 43.0667 -79.0000 206° Southwest 213 245 2,900 2,400 Climbing Buffalo TRACON
07:32PM 42.9933 -79.0886 221° Southwest 264 304 6,600 2,760 Climbing Cleveland Center
07:33PM 42.9250 -79.1303 204° Southwest 292 336 9,400 2,220 Climbing Cleveland Center
07:34PM 42.8319 -79.1269 178° South 310 357 11,200 1,500 Climbing Cleveland Center
07:35PM 42.7258 -79.1264 180° South 380 437 12,500 1,800 Climbing Cleveland Center
07:36PM 42.6094 -79.1258 180° South 416 479 15,000 2,160 Climbing Cleveland Center
07:37PM 42.4889 -79.1228 179° South 433 498 17,000 2,100 Climbing Cleveland Center
07:38PM 42.3561 -79.1222 180° South 443 510 19,400 1,800 Climbing Cleveland Center
07:39PM 42.2303 -79.1219 180° South 455 524 20,800 1,440 Climbing Cleveland Center
07:40PM 42.1036 -79.1508 190° South 465 535 22,400 1,380 Climbing Cleveland Center
07:41PM 41.9719 -79.1814 190° South 481 554 23,700 1,380 Climbing Cleveland Center
07:42PM 41.8206 -79.2169 190° South 488 562 25,300 1,500 Climbing Cleveland Center
07:43PM 41.6847 -79.2489 190° South 496 571 26,900 1,500 Climbing Cleveland Center
07:44PM 41.5444 -79.2831 190° South 489 563 28,500 1,440 Climbing Cleveland Center
07:45PM 41.4128 -79.3139 190° South 489 563 29,900 720 Climbing Cleveland Center
07:46PM 41.2772 -79.3456 190° South 481 554 30,000  Climbing Cleveland Center
07:47PM 41.1458 -79.3753 190° South 480 552 30,000  Level Cleveland Center
07:48PM 41.0144 -79.4056 190° South 480 552 30,000  Level Cleveland Center
07:49PM 40.8825 -79.4347 189° South 479 551 30,000  Level Cleveland Center
07:50PM 40.7503 -79.4564 187° South 480 552 30,000  Level Cleveland Center
07:51PM 40.5867 -79.4511 179° South 485 558 30,000  Level Cleveland Center
07:52PM 40.4514 -79.4483 179° South 485 558 30,000  Level Cleveland Center
07:53PM 40.3144 -79.4456 179° South 485 558 30,000  Level Cleveland Center
07:54PM 40.1781 -79.4444 180° South 486 559 30,000  Level Cleveland Center
07:55PM 40.0422 -79.4550 183° South 487 560 30,000  Level Cleveland Center
07:56PM 39.9075 -79.4797 188° South 488 562 30,000  Level Cleveland Center
07:57PM 39.7733 -79.5047 188° South 487 560 30,000  Level Cleveland Center
07:58PM 39.6422 -79.5269 187° South 483 556 30,000  Level Cleveland Center
08:00PM 39.4839 -79.5525 187° South 480 552 30,000  Level Cleveland Center
08:01PM 39.3522 -79.5739 187° South 479 551 30,000  Level Cleveland Center
08:02PM 39.2189 -79.5975 188° South 479 551 30,000  Level Cleveland Center
08:03PM 39.0867 -79.6228 188° South 479 551 30,000  Level Cleveland Center
08:04PM 38.9550 -79.6461 188° South 480 552 30,000  Level Cleveland Center
08:05PM 38.8242 -79.6669 187° South 477 549 30,000  Level Cleveland Center
08:06PM 38.6672 -79.6942 188° South 475 547 30,000  Level Cleveland Center
08:07PM 38.5211 -79.7261 190° South 487 560 30,000  Level Washington Center
08:08PM 38.3892 -79.7481 187° South 487 560 30,000  Level Washington Center
08:09PM 38.2569 -79.7697 187° South 482 555 30,000  Level Washington Center
08:10PM 38.1142 -79.7933 187° South 482 555 30,000  Level Washington Center
08:11PM 37.9842 -79.8203 189° South 482 555 30,000  Level Washington Center
08:12PM 37.8539 -79.8472 189° South 482 555 30,000  Level Washington Center
08:13PM 37.7342 -79.8694 188° South 488 562 30,000  Level Washington Center
08:14PM 37.6036 -79.8986 190° South 488 562 30,000  Level Washington Center
08:15PM 37.4714 -79.9253 189° South 488 562 30,000  Level Washington Center
08:16PM 37.3264 -79.9511 188° South 488 562 30,000  Level Washington Center
08:17PM 37.1942 -79.9747 188° South 488 562 30,000  Level Washington Center
08:18PM 37.0639 -80.0011 189° South 488 562 30,000  Level Washington Center
08:20PM 36.8461 -80.0389 188° South 479 551 30,000  Level Atlanta Center
08:21PM 36.7156 -80.0636 189° South 479 551 30,000  Level Atlanta Center
08:22PM 36.5869 -80.0856 188° South 479 551 30,000  Level Atlanta Center
08:23PM 36.4544 -80.1128 189° South 479 551 30,000  Level Atlanta Center
08:24PM 36.3133 -80.1378 188° South 479 551 30,000  Level Atlanta Center
08:25PM 36.1828 -80.1647 189° South 479 551 30,000  Level Atlanta Center
08:26PM 36.0522 -80.1889 189° South 479 551 30,000  Level Atlanta Center
08:27PM 35.9339 -80.2072 187° South 479 551 30,000  Level Atlanta Center
08:28PM 35.8094 -80.2361 191° South 479 551 30,000  Level Atlanta Center
08:29PM 35.6642 -80.2608 188° South 479 551 30,000  Level Atlanta Center
08:30PM 35.5336 -80.2872 189° South 479 551 30,000  Level Atlanta Center
08:31PM 35.4050 -80.3111 189° South 479 551 30,000  Level Atlanta Center
08:32PM 35.2764 -80.3347 189° South 484 557 30,000  Level Atlanta Center
08:33PM 35.1478 -80.3581 188° South 479 551 30,000  Level Atlanta Center
08:36PM 34.7386 -80.4344 189° South 474 545 30,000  Level Jacksonville Center
08:37PM 34.6100 -80.4583 189° South 468 539 30,000  Level Jacksonville Center
08:38PM 34.4811 -80.4819 189° South 468 539 30,000  Level Jacksonville Center
08:39PM 34.3522 -80.5108 190° South 468 539 30,000 -60 Level Jacksonville Center
08:40PM 34.2253 -80.5319 188° South 468 539 29,900  Descending Jacksonville Center
08:41PM 34.0944 -80.5556 188° South 468 539 30,000 -360 Climbing Jacksonville Center
08:42PM 33.9675 -80.5789 189° South 468 539 29,200 -1,020 Descending Jacksonville Center
08:43PM 33.8344 -80.6022 188° South 468 539 28,000 -660 Descending Jacksonville Center
08:44PM 33.7139 -80.6231 188° South 484 557 27,900 -60 Descending Jacksonville Center
08:45PM 33.5847 -80.6461 188° South 484 557 27,900  Level Jacksonville Center
08:46PM 33.4536 -80.6694 188° South 484 557 28,000  Climbing Jacksonville Center
08:47PM 33.3228 -80.6925 188° South 484 557 28,000  Level Jacksonville Center
08:48PM 33.1914 -80.7133 188° South 484 557 28,000  Level Jacksonville Center
08:49PM 33.0603 -80.7361 188° South 484 557 28,000  Level Jacksonville Center
08:50PM 32.9314 -80.7617 189° South 484 557 28,000  Level Jacksonville Center
08:51PM 32.7983 -80.7844 188° South 484 557 28,000  Level Jacksonville Center
08:52PM 32.6692 -80.8072 188° South 484 557 28,000  Level Jacksonville Center
08:53PM 32.5381 -80.8300 188° South 484 557 28,000  Level Jacksonville Center
08:54PM 32.3986 -80.8553 189° South 479 551 28,000  Level Jacksonville Center
08:55PM 32.2800 -80.8753 188° South 479 551 28,000  Level Jacksonville Center
08:56PM 32.1361 -80.8981 188° South 479 551 28,000  Level Jacksonville Center
08:57PM 32.0175 -80.9203 189° South 484 557 28,000  Level Jacksonville Center
08:58PM 31.8739 -80.9453 188° South 479 551 28,000  Level Jacksonville Center
08:59PM 31.7469 -80.9675 188° South 479 551 28,000  Level Jacksonville Center
09:00PM 31.6281 -80.9869 188° South 479 551 28,000  Level Jacksonville Center
09:01PM 31.4886 -81.0117 189° South 477 549 28,000  Level Jacksonville Center
09:02PM 31.3553 -81.0314 187° South 477 549 28,000  Level Jacksonville Center
09:03PM 31.2219 -81.0561 189° South 480 552 28,000  Level Jacksonville Center
09:04PM 31.0931 -81.0778 188° South 479 551 28,000  Level Jacksonville Center
09:05PM 30.9617 -81.1022 189° South 484 557 28,000  Level Jacksonville Center
09:06PM 30.8325 -81.1192 186° South 479 551 28,000  Level Jacksonville Center
09:07PM 30.7033 -81.1433 189° South 479 551 28,000  Level Jacksonville Center
09:08PM 30.5700 -81.1556 185° South 485 558 28,000 -360 Level Jacksonville Center
09:09PM 30.4383 -81.1483 177° South 480 552 27,300 -1,020 Descending Jacksonville Center
09:10PM 30.3025 -81.1458 179° South 475 547 26,000 -1,200 Descending Jacksonville Center
09:11PM 30.1711 -81.1433 179° South 475 547 24,900 -1,200 Descending Jacksonville Center
09:12PM 30.0583 -81.1406 179° South 469 540 23,600 -1,740 Descending Jacksonville Center
09:13PM 29.9433 -81.1356 178° South 445 512 21,500 -2,400 Descending Jacksonville Center
09:13PM 29.9161 -81.1361 181° South 386 444 20,800 -2,580 Descending Jacksonville Center
09:14PM 29.8328 -81.1328 178° South 419 482 18,900 -2,880 Descending Jacksonville Center
09:14PM 29.8139 -81.1331 181° South 386 444 18,200 -2,700 Descending Jacksonville Center
09:15PM 29.7219 -81.1325 180° South 400 460 16,300 -2,580 Descending Jacksonville Center
09:15PM 29.7053 -81.1281 167° South 393 452 15,600 -2,820 Descending Jacksonville Center
09:16PM 29.6175 -81.1272 180° South 400 460 13,500 -3,000 Descending Jacksonville Center
09:16PM 29.5883 -81.1278 181° South 391 450 12,600 -2,100 Descending Jacksonville Center
09:17PM 29.5111 -81.1242 178° South 394 453 11,400 -1,500 Descending Jacksonville Center
09:17PM 29.4861 -81.1247 181° South 369 425 11,100 -1,140 Descending Jacksonville Center
09:18PM 29.4150 -81.1211 177° South 371 427 10,300 -1,020 Descending Jacksonville Center
09:18PM 29.3942 -81.1192 175° South 315 362 10,100 -1,200 Descending Jacksonville Center
09:19PM 29.3294 -81.1156 177° South 336 387 9,100 -1,320 Descending Jacksonville Center
09:19PM 29.3106 -81.1161 181° South 288 331 8,800 -1,200 Descending Jacksonville Center
09:20PM 29.2522 -81.1267 189° South 303 349 7,900 -1,260 Descending Jacksonville Center
09:21PM 29.1731 -81.1422 190° South 292 336 6,500 -1,380 Descending Jacksonville Center
09:22PM 29.1003 -81.1600 192° South 286 329 5,200 -780 Descending Jacksonville Center
09:23PM 29.0256 -81.1781 192° South 280 322 5,000 -300 Descending Jacksonville Center
09:25PM 28.8833 -81.2167 193° South 274 315 4,400 -720 Descending Orlando TRACON
09:26PM 28.8667 -81.3167 259° West 243 280 2,900 -1,080 Descending Orlando TRACON
09:27PM 28.8500 -81.3667 249° West 179 206 2,200 -660 Descending Orlando TRACON
09:28PM 28.8000 -81.3500 164° South 180 207 1,600 -600 Descending Orlando TRACON
09:29PM 28.7833 -81.3167 120° Southeast 166 191 1,100 -540 Descending Orlando TRACON
09:31PM 28.7667 -81.2333 199° South  Level FlightAware Approximate
09:38PM 28.7770 -81.2349 199° South  Level Estimated
09:39PM 28.7770 -81.2349 199° South  Level Estimated
09:40PM 28.7770 -81.2349 199° South  Level Estimated
09:41PM 28.7770 -81.2349 199° South  Level Estimated